Time;durP1;ratioP1;P1;durP2;ratioP2;P2;SDS_P1;SDS_P2;PMS_P1;PMS_P2;Temp;Humidity;BMP_temperature;BMP_pressure;BME280_temperature;BME280_humidity;BME280_pressure;Samples;Min_cycle;Max_cycle;Signal;HPM_P1;HPM_P2
2022/06/08 00:01:29;;;;;;;10.77;5.82;;;22.30;99.90;;;;;;4860224;29;20057;-79
2022/06/08 00:04:17;;;;;;;9.55;6.47;;;22.30;99.90;;;;;;4860397;29;20109;-80
2022/06/08 00:07:04;;;;;;;10.07;5.85;;;22.40;99.90;;;;;;4860661;29;20049;-80
2022/06/08 00:09:50;;;;;;;10.95;6.22;;;22.40;99.90;;;;;;4860396;29;20516;-82
2022/06/08 00:12:36;;;;;;;11.63;6.82;;;22.40;99.90;;;;;;4859744;29;20480;-80
2022/06/08 00:15:23;;;;;;;11.45;6.75;;;22.20;99.90;;;;;;4859317;29;20070;-82
2022/06/08 00:18:10;;;;;;;13.93;6.47;;;22.30;99.90;;;;;;4858372;29;20152;-80
2022/06/08 00:20:56;;;;;;;10.20;6.60;;;22.20;99.90;;;;;;4859967;29;20048;-81
2022/06/08 00:23:43;;;;;;;13.20;6.32;;;22.10;99.90;;;;;;4858968;29;20581;-81
2022/06/08 00:26:29;;;;;;;9.25;6.35;;;22.20;99.90;;;;;;4859519;29;20401;-80
2022/06/08 00:29:16;;;;;;;9.35;6.88;;;22.10;99.90;;;;;;4871117;29;20069;-81
2022/06/08 00:32:02;;;;;;;10.15;6.97;;;22.00;99.90;;;;;;4859103;29;20128;-80
2022/06/08 00:34:48;;;;;;;11.25;6.97;;;22.00;99.90;;;;;;4859183;29;20186;-81
2022/06/08 00:37:34;;;;;;;7.88;5.97;;;22.00;99.90;;;;;;4859158;29;20056;-81
2022/06/08 00:40:23;;;;;;;10.13;5.95;;;22.20;99.90;;;;;;4871309;29;20041;-82
2022/06/08 00:43:09;;;;;;;10.27;6.22;;;22.00;99.90;;;;;;4859212;29;20060;-80
2022/06/08 00:45:56;;;;;;;8.23;6.45;;;21.80;99.90;;;;;;4859495;29;20139;-81
2022/06/08 00:48:49;;;;;;;9.55;6.88;;;21.90;99.90;;;;;;4858989;29;20084;-79
2022/06/08 00:51:35;;;;;;;9.38;6.55;;;21.60;99.90;;;;;;4859133;29;20553;-82
2022/06/08 00:54:31;;;;;;;9.65;7.40;;;21.70;99.90;;;;;;4858985;29;20053;-80
2022/06/08 00:57:25;;;;;;;10.57;6.68;;;21.90;99.90;;;;;;4858781;29;20104;-81
2022/06/08 01:00:15;;;;;;;11.27;6.43;;;21.90;99.90;;;;;;4863004;29;20162;-81
2022/06/08 01:03:01;;;;;;;8.65;6.45;;;22.00;99.90;;;;;;4863048;29;20057;-80
2022/06/08 01:05:53;;;;;;;8.88;6.50;;;22.10;99.90;;;;;;4863707;29;20049;-83
2022/06/08 01:08:43;;;;;;;10.00;6.78;;;22.20;99.90;;;;;;4863173;29;20185;-82
2022/06/08 01:11:36;;;;;;;10.90;7.28;;;21.70;99.90;;;;;;4863442;29;20045;-83
2022/06/08 01:14:21;;;;;;;10.88;6.35;;;21.80;99.90;;;;;;4862965;29;20064;-80
2022/06/08 01:17:19;;;;;;;9.30;6.85;;;21.80;99.90;;;;;;4862509;29;20052;-81
2022/06/08 01:20:05;;;;;;;8.95;6.97;;;21.80;99.90;;;;;;4862590;29;20049;-81
2022/06/08 01:22:52;;;;;;;9.73;6.95;;;21.90;99.90;;;;;;4874000;29;20120;-80
2022/06/08 01:25:50;;;;;;;10.85;6.75;;;21.70;99.90;;;;;;4862348;29;20044;-81
2022/06/08 01:28:53;;;;;;;8.95;6.63;;;21.50;99.90;;;;;;4862064;29;20052;-83
2022/06/08 01:31:55;;;;;;;9.43;6.85;;;21.40;99.90;;;;;;4878007;29;20060;-83
2022/06/08 01:35:07;;;;;;;9.25;7.13;;;21.60;99.90;;;;;;4881239;29;20460;-81
2022/06/08 01:37:56;;;;;;;10.98;6.95;;;21.80;99.90;;;;;;4881525;29;20693;-81
2022/06/08 01:41:20;;;;;;;11.43;6.85;;;21.80;99.90;;;;;;4881375;29;20109;-81
2022/06/08 01:47:56;;;;;;;9.55;6.70;;;21.70;99.90;;;;;;4880113;29;20048;-80
2022/06/08 01:50:59;;;;;;;10.13;6.78;;;21.80;99.90;;;;;;4880222;29;20060;-79
2022/06/08 01:53:56;;;;;;;10.43;7.18;;;21.60;99.90;;;;;;4880370;29;20516;-80
2022/06/08 01:57:07;;;;;;;16.20;8.05;;;21.70;99.90;;;;;;4892545;29;20132;-80
2022/06/08 01:59:59;;;;;;;;;;;21.80;99.90;;;;;;4880777;29;20052;-79
2022/06/08 02:02:55;;;;;;;11.48;6.90;;;21.80;99.90;;;;;;4879932;29;20144;-81
2022/06/08 02:05:59;;;;;;;10.73;6.50;;;21.70;99.90;;;;;;4880290;29;20056;-82
2022/06/08 02:09:20;;;;;;;9.48;6.40;;;21.70;99.90;;;;;;4879845;29;20096;-80
2022/06/08 02:12:08;;;;;;;10.63;7.30;;;21.70;99.90;;;;;;4877305;29;20534;-80
2022/06/08 02:15:02;;;;;;;9.88;6.53;;;21.60;99.90;;;;;;4880106;29;20412;-81
2022/06/08 02:17:53;;;;;;;12.05;6.85;;;21.60;99.90;;;;;;4879890;29;20066;-81
2022/06/08 02:21:11;;;;;;;8.50;6.47;;;21.70;99.90;;;;;;4880472;29;20125;-82
2022/06/08 02:24:22;;;;;;;13.80;7.50;;;21.70;99.90;;;;;;4874987;29;20051;-83
2022/06/08 02:27:12;;;;;;;;;;;21.60;99.90;;;;;;4880540;29;20044;-81
2022/06/08 02:30:14;;;;;;;9.88;6.25;;;21.60;99.90;;;;;;4878828;29;19927;-81
2022/06/08 02:36:18;;;;;;;11.15;7.40;;;21.50;99.90;;;;;;4860906;29;20074;-81
2022/06/08 02:39:22;;;;;;;12.95;7.28;;;21.50;99.90;;;;;;4859929;29;20397;-81
2022/06/08 02:42:17;;;;;;;12.43;7.32;;;21.50;99.90;;;;;;4860164;29;20068;-81
2022/06/08 02:45:11;;;;;;;11.40;6.97;;;21.40;99.90;;;;;;4860875;29;20508;-81
2022/06/08 02:48:01;;;;;;;9.77;7.30;;;21.30;99.90;;;;;;4860625;29;20511;-82
2022/06/08 02:50:51;;;;;;;;;;;21.30;99.90;;;;;;4860299;29;20052;-81
2022/06/08 02:53:54;;;;;;;9.30;6.60;;;21.20;99.90;;;;;;4860335;29;20293;-80
2022/06/08 02:56:59;;;;;;;10.68;6.53;;;21.20;99.90;;;;;;4860965;29;20048;-82
2022/06/08 02:59:49;;;;;;;12.88;7.55;;;21.50;99.90;;;;;;4860435;29;20068;-79
2022/06/08 03:02:42;;;;;;;9.93;7.15;;;21.50;99.90;;;;;;4860499;29;20056;-80
2022/06/08 03:06:05;;;;;;;12.80;7.45;;;21.30;99.90;;;;;;4860599;29;20096;-80
2022/06/08 03:08:57;;;;;;;10.75;7.32;;;21.20;99.90;;;;;;4855271;29;20504;-80
2022/06/08 03:11:49;;;;;;;9.73;6.95;;;21.20;99.90;;;;;;4860578;29;20565;-80
2022/06/08 03:14:35;;;;;;;10.30;7.05;;;21.20;99.90;;;;;;4860089;29;20049;-79
2022/06/08 03:17:26;;;;;;;8.77;6.78;;;21.30;99.90;;;;;;4859303;29;20551;-78
2022/06/08 03:20:12;;;;;;;10.57;7.60;;;21.50;99.90;;;;;;4860238;29;20048;-79
2022/06/08 03:22:58;;;;;;;10.93;7.80;;;21.40;99.90;;;;;;4859354;29;20178;-80
2022/06/08 03:25:44;;;;;;;11.65;7.65;;;21.50;99.90;;;;;;4860294;29;20048;-78
2022/06/08 03:28:31;;;;;;;9.65;7.47;;;21.50;99.90;;;;;;4859999;29;20053;-80
2022/06/08 03:31:17;;;;;;;12.23;7.43;;;21.20;99.90;;;;;;4869698;29;20405;-81
2022/06/08 03:34:03;;;;;;;9.68;7.53;;;21.20;99.90;;;;;;4879006;29;20044;-80
2022/06/08 03:36:49;;;;;;;10.48;7.20;;;21.20;99.90;;;;;;4879842;29;20495;-81
2022/06/08 03:39:35;;;;;;;9.38;6.72;;;21.20;99.90;;;;;;4879211;29;20057;-80
2022/06/08 03:42:21;;;;;;;12.73;7.60;;;21.20;99.90;;;;;;4879260;29;20069;-79
2022/06/08 03:45:08;;;;;;;12.10;7.07;;;21.30;99.90;;;;;;4878667;29;20048;-80
2022/06/08 03:47:55;;;;;;;10.77;7.47;;;21.40;99.90;;;;;;4878444;29;20048;-82
2022/06/08 03:50:42;;;;;;;9.43;6.88;;;21.30;99.90;;;;;;4877628;29;20181;-79
2022/06/08 03:53:32;;;;;;;10.05;7.35;;;21.50;99.90;;;;;;4878307;29;20401;-81
2022/06/08 03:56:18;;;;;;;;;;;21.70;99.90;;;;;;4878713;29;20052;-81
2022/06/08 03:59:04;;;;;;;10.43;6.43;;;21.70;99.90;;;;;;4878108;29;19935;-81
2022/06/08 04:01:51;;;;;;;12.13;6.60;;;21.70;99.90;;;;;;4877857;29;20124;-82
2022/06/08 04:04:38;;;;;;;11.98;7.18;;;21.60;99.90;;;;;;4877947;29;20117;-81
2022/06/08 04:07:24;;;;;;;11.82;7.15;;;21.70;99.90;;;;;;4878032;29;20060;-81
2022/06/08 04:10:10;;;;;;;12.80;7.45;;;21.70;99.90;;;;;;4877911;29;20060;-80
2022/06/08 04:12:57;;;;;;;11.05;7.38;;;21.80;99.90;;;;;;4877720;29;20048;-82
2022/06/08 04:15:44;;;;;;;11.25;8.05;;;21.70;99.90;;;;;;4878201;29;20048;-81
2022/06/08 04:18:31;;;;;;;11.27;7.75;;;21.60;99.90;;;;;;4878017;29;20113;-83
2022/06/08 04:21:17;;;;;;;10.52;7.25;;;21.70;99.90;;;;;;4878171;29;20445;-81
2022/06/08 04:24:04;;;;;;;10.43;7.85;;;21.70;99.90;;;;;;4877797;29;20056;-80
2022/06/08 04:26:51;;;;;;;27.20;12.20;;;21.70;99.90;;;;;;4877177;29;20060;-79
2022/06/08 04:29:38;;;;;;;21.20;11.90;;;21.70;99.90;;;;;;4877531;29;20055;-78
2022/06/08 04:32:24;;;;;;;16.05;9.85;;;21.70;99.90;;;;;;4863063;29;20100;-78
2022/06/08 04:35:10;;;;;;;11.88;8.25;;;21.70;99.90;;;;;;4862915;29;20041;-81
2022/06/08 04:37:56;;;;;;;15.57;9.18;;;21.60;99.90;;;;;;4863060;29;20124;-80
2022/06/08 04:40:45;;;;;;;13.73;9.25;;;21.60;99.90;;;;;;4862857;29;20064;-79
2022/06/08 04:43:31;;;;;;;14.88;10.50;;;21.70;99.90;;;;;;4862747;29;20147;-82
2022/06/08 04:46:17;;;;;;;90.38;60.40;;;21.80;99.90;;;;;;4863018;29;20056;-82
2022/06/08 04:49:03;;;;;;;202.25;134.63;;;21.60;99.90;;;;;;4861746;29;20130;-83
2022/06/08 04:51:49;;;;;;;143.68;100.43;;;21.70;99.90;;;;;;4861667;29;20053;-84
2022/06/08 04:54:35;;;;;;;35.83;28.70;;;21.70;99.90;;;;;;4861899;29;20129;-82
2022/06/08 04:57:30;;;;;;;46.08;33.35;;;21.70;99.90;;;;;;4866494;29;20393;-82
2022/06/08 05:00:18;;;;;;;43.53;27.52;;;21.60;99.90;;;;;;4871212;29;20357;-84
2022/06/08 05:03:04;;;;;;;90.57;62.72;;;21.70;99.90;;;;;;4873609;29;20048;-86
2022/06/08 05:05:51;;;;;;;31.83;22.00;;;21.70;99.90;;;;;;4880946;29;20441;-84
2022/06/08 05:08:36;;;;;;;19.98;14.13;;;21.80;99.90;;;;;;4880215;29;20081;-81
2022/06/08 05:11:22;;;;;;;21.85;14.20;;;21.80;99.90;;;;;;4880918;29;20056;-82
2022/06/08 05:14:08;;;;;;;15.88;12.38;;;21.70;99.90;;;;;;4880891;29;20491;-79
2022/06/08 05:16:53;;;;;;;16.30;12.38;;;21.60;99.90;;;;;;4880854;29;20075;-82
2022/06/08 05:19:39;;;;;;;18.48;12.13;;;21.60;99.90;;;;;;4880128;29;20520;-83
2022/06/08 05:22:25;;;;;;;20.60;12.77;;;21.60;99.90;;;;;;4880512;29;20056;-84
2022/06/08 05:25:14;;;;;;;16.10;12.02;;;21.70;99.90;;;;;;4880890;29;20067;-81
2022/06/08 05:28:00;;;;;;;18.08;12.15;;;21.70;99.90;;;;;;4880268;29;20174;-83
2022/06/08 05:30:49;;;;;;;17.23;10.20;;;21.80;99.90;;;;;;4878377;29;20065;-81
2022/06/08 05:33:35;;;;;;;17.05;11.32;;;21.60;99.90;;;;;;4859992;29;20056;-80
2022/06/08 05:36:21;;;;;;;20.17;10.20;;;21.70;99.90;;;;;;4859460;29;20057;-81
2022/06/08 05:39:07;;;;;;;18.45;10.07;;;21.70;99.90;;;;;;4860393;29;20167;-80
2022/06/08 05:41:54;;;;;;;18.55;9.57;;;21.60;99.90;;;;;;4862968;29;20085;-83
2022/06/08 05:44:39;;;;;;;13.50;10.13;;;21.60;99.90;;;;;;4858364;29;20195;-82
2022/06/08 05:47:26;;;;;;;18.55;9.52;;;21.70;99.90;;;;;;4860826;29;20524;-82
2022/06/08 05:50:12;;;;;;;145.98;93.43;;;21.80;99.90;;;;;;4861832;29;20048;-83
2022/06/08 05:53:04;;;;;;;112.82;73.93;;;21.80;99.90;;;;;;4861614;29;20205;-82
2022/06/08 05:55:49;;;;;;;24.30;17.88;;;21.70;99.90;;;;;;4861635;29;20076;-83
2022/06/08 05:58:35;;;;;;;19.63;11.63;;;21.70;99.90;;;;;;4861422;29;20627;-85
2022/06/08 06:01:21;;;;;;;17.27;9.95;;;21.70;99.90;;;;;;4860512;29;20061;-85
2022/06/08 06:04:07;;;;;;;17.75;9.60;;;21.60;99.90;;;;;;4861691;29;20064;-84
2022/06/08 06:06:53;;;;;;;16.63;9.82;;;21.50;99.90;;;;;;4861739;29;20124;-80
2022/06/08 06:09:41;;;;;;;13.13;8.88;;;21.50;99.90;;;;;;4861726;29;20189;-86
2022/06/08 06:12:29;;;;;;;17.15;9.95;;;21.50;99.90;;;;;;4861117;29;20149;-87
2022/06/08 06:16:03;;;;;;;14.35;9.85;;;21.70;99.90;;;;;;4861884;29;20178;-85
2022/06/08 06:19:02;;;;;;;13.27;8.52;;;21.60;99.90;;;;;;4861425;29;20170;-84
2022/06/08 06:21:49;;;;;;;13.52;8.30;;;21.60;99.90;;;;;;4841173;29;20073;-87
2022/06/08 06:24:35;;;;;;;17.92;8.70;;;21.60;99.90;;;;;;4841702;29;20094;-87
2022/06/08 06:27:21;;;;;;;11.32;7.82;;;21.80;99.90;;;;;;4828425;29;20098;-86
2022/06/08 06:30:08;;;;;;;14.02;7.78;;;21.80;99.90;;;;;;4828444;29;20065;-84
2022/06/08 06:32:54;;;;;;;10.00;7.43;;;21.80;99.90;;;;;;4857435;29;20056;-86
2022/06/08 06:35:41;;;;;;;15.88;7.57;;;21.70;99.90;;;;;;4859908;29;20273;-84
2022/06/08 06:38:27;;;;;;;11.13;6.88;;;22.10;99.90;;;;;;4859195;29;20064;-85
2022/06/08 06:41:16;;;;;;;10.05;7.60;;;22.00;99.90;;;;;;4859631;29;20060;-85
2022/06/08 06:44:02;;;;;;;10.48;6.90;;;21.80;99.90;;;;;;4846463;29;20190;-87
2022/06/08 06:46:51;;;;;;;9.30;7.10;;;21.70;99.90;;;;;;4858925;29;20129;-88
2022/06/08 06:49:37;;;;;;;9.82;7.13;;;21.90;99.90;;;;;;4859927;29;20053;-86
2022/06/08 06:52:23;;;;;;;11.38;7.10;;;21.90;99.90;;;;;;4867333;29;20052;-86
2022/06/08 06:55:27;;;;;;;11.88;7.28;;;22.00;99.90;;;;;;4879917;29;20056;-86
2022/06/08 06:58:13;;;;;;;9.18;6.97;;;22.10;99.90;;;;;;4878557;29;20044;-86
2022/06/08 07:01:00;;;;;;;10.18;7.05;;;22.10;99.90;;;;;;4879911;29;20146;-86
2022/06/08 07:03:46;;;;;;;11.05;6.90;;;22.10;99.90;;;;;;4880046;29;20060;-88
2022/06/08 07:06:32;;;;;;;11.07;7.30;;;22.30;99.90;;;;;;4881292;29;20432;-88
2022/06/08 07:09:18;;;;;;;16.50;7.05;;;22.30;99.90;;;;;;4879973;29;20133;-88
2022/06/08 07:12:06;;;;;;;8.73;6.35;;;22.50;99.90;;;;;;4879300;29;20056;-88
2022/06/08 07:14:52;;;;;;;10.35;6.72;;;22.70;99.90;;;;;;4880544;29;20069;-85
2022/06/08 07:17:39;;;;;;;9.43;6.57;;;22.80;99.90;;;;;;4879264;29;20134;-84
2022/06/08 07:20:26;;;;;;;11.10;6.70;;;22.80;99.90;;;;;;4878423;29;20148;-85
2022/06/08 07:23:12;;;;;;;9.40;6.47;;;22.70;99.90;;;;;;4865445;29;20517;-87
2022/06/08 07:25:58;;;;;;;8.00;6.40;;;22.80;99.90;;;;;;4878609;29;20064;-86
2022/06/08 07:28:44;;;;;;;10.85;7.13;;;22.80;99.90;;;;;;4878356;29;20061;-83
2022/06/08 07:31:30;;;;;;;7.80;6.43;;;22.90;99.90;;;;;;4875565;29;20056;-85
2022/06/08 07:34:29;;;;;;;9.95;7.38;;;22.80;99.90;;;;;;4869130;23;20052;-87
2022/06/08 07:37:19;;;;;;;9.97;7.60;;;22.70;99.90;;;;;;4860296;29;20069;-82
2022/06/08 07:40:06;;;;;;;10.40;7.22;;;22.80;99.90;;;;;;4859997;29;20101;-82
2022/06/08 07:42:52;;;;;;;12.48;7.85;;;23.00;99.90;;;;;;4861196;29;20496;-81
2022/06/08 07:45:38;;;;;;;10.00;7.43;;;22.80;99.90;;;;;;4859589;29;20068;-82
2022/06/08 07:51:30;;;;;;;9.25;7.18;;;22.50;99.90;;;;;;4860094;29;20063;-80
2022/06/08 07:54:25;;;;;;;11.13;7.90;;;22.90;99.90;;;;;;4860143;29;20064;-82
2022/06/08 07:57:25;;;;;;;9.50;6.90;;;22.90;99.90;;;;;;4860028;29;20082;-81
2022/06/08 08:00:15;;;;;;;7.68;5.93;;;23.00;99.90;;;;;;4853893;29;20048;-82
2022/06/08 08:03:02;;;;;;;9.10;7.07;;;23.10;99.90;;;;;;4852902;29;20057;-81
2022/06/08 08:05:55;;;;;;;13.82;7.55;;;22.90;99.90;;;;;;4850753;29;20044;-85
2022/06/08 08:08:41;;;;;;;9.95;6.38;;;22.90;99.90;;;;;;4849868;29;20477;-85
2022/06/08 08:11:27;;;;;;;8.23;6.25;;;23.00;99.90;;;;;;4843288;29;20101;-83
2022/06/08 08:14:14;;;;;;;9.15;6.00;;;23.00;99.90;;;;;;4841332;29;20179;-81
2022/06/08 08:17:02;;;;;;;10.98;6.55;;;23.00;99.90;;;;;;4840803;29;20202;-83
2022/06/08 08:19:51;;;;;;;11.40;6.80;;;23.00;99.90;;;;;;4841343;29;20061;-85
2022/06/08 08:30:03;;;;;;;10.43;6.10;;;23.40;99.90;;;;;;4853118;29;20076;-83
2022/06/08 08:33:06;;;;;;;7.97;6.38;;;23.50;99.90;;;;;;4843872;29;20102;-84
2022/06/08 08:36:17;;;;;;;9.18;5.60;;;23.50;99.90;;;;;;4834021;29;20562;-86
2022/06/08 08:39:08;;;;;;;9.40;6.45;;;23.40;99.90;;;;;;4847068;29;20072;-83
2022/06/08 08:42:41;;;;;;;8.45;6.50;;;23.40;99.90;;;;;;4848720;29;20079;-81
2022/06/08 08:46:13;;;;;;;10.90;5.82;;;23.40;99.90;;;;;;5129943;23;20194;-82
2022/06/08 08:53:41;;;;;;;8.75;6.28;;;23.60;99.90;;;;;;4877690;29;20055;-82
2022/06/08 08:56:39;;;;;;;8.82;6.07;;;24.30;99.90;;;;;;4885674;29;20500;-84
2022/06/08 08:59:31;;;;;;;8.32;6.03;;;24.50;99.90;;;;;;4885508;29;20494;-83
2022/06/08 09:06:19;;;;;;;12.75;6.40;;;24.40;99.90;;;;;;4886001;29;20073;-84
2022/06/08 09:12:50;;;;;;;11.38;6.70;;;24.30;99.90;;;;;;4844314;29;20140;-83
2022/06/08 09:16:20;;;;;;;11.75;6.50;;;24.60;99.90;;;;;;4828493;29;20228;-81
2022/06/08 09:19:29;;;;;;;12.00;7.05;;;24.80;99.90;;;;;;4814691;29;20406;-84
2022/06/08 09:22:42;;;;;;;9.60;7.28;;;24.40;99.90;;;;;;4853604;23;20060;-85
2022/06/08 09:26:17;;;;;;;14.55;7.70;;;24.30;99.90;;;;;;4888886;29;20052;-82
2022/06/08 09:42:21;;;;;;;8.48;6.45;;;25.20;99.90;;;;;;5344509;23;20064;-85
2022/06/08 09:45:31;;;;;;;9.50;7.03;;;25.60;99.90;;;;;;4887961;29;20055;-79
2022/06/08 09:52:03;;;;;;;11.43;7.13;;;25.40;99.90;;;;;;4891370;29;20051;-81
2022/06/08 09:55:14;;;;;;;9.63;6.50;;;25.40;99.90;;;;;;4888877;29;20048;-81
2022/06/08 09:59:00;;;;;;;16.05;9.77;;;25.60;99.90;;;;;;4889384;29;20056;-80
2022/06/08 10:02:17;;;;;;;9.45;6.90;;;25.70;99.90;;;;;;4882150;29;20052;-80
2022/06/08 10:05:35;;;;;;;12.23;7.78;;;25.80;99.90;;;;;;4881386;29;20059;-80
2022/06/08 10:08:45;;;;;;;10.43;8.07;;;26.10;99.90;;;;;;4880533;29;20136;-82
2022/06/08 10:11:41;;;;;;;10.43;6.75;;;26.30;99.90;;;;;;4884981;29;20060;-82
2022/06/08 10:14:53;;;;;;;9.13;6.22;;;26.30;99.90;;;;;;4885244;29;20056;-83
2022/06/08 10:18:13;;;;;;;9.05;6.70;;;25.90;99.90;;;;;;4887728;29;20079;-82
2022/06/08 10:21:09;;;;;;;11.10;7.03;;;25.90;99.90;;;;;;4825842;29;20115;-81
2022/06/08 10:24:11;;;;;;;;;;;25.80;99.90;;;;;;4882310;29;20104;-84
2022/06/08 10:27:29;;;;;;;8.50;6.50;;;25.90;99.90;;;;;;4887947;29;19967;-83
2022/06/08 10:30:29;;;;;;;9.98;7.35;;;26.00;99.90;;;;;;4887576;29;20056;-83
2022/06/08 10:33:23;;;;;;;10.00;6.85;;;26.10;99.90;;;;;;4887426;29;20166;-83
2022/06/08 10:36:12;;;;;;;8.13;6.35;;;26.00;99.90;;;;;;4889181;29;20124;-83
2022/06/08 10:39:08;;;;;;;9.80;6.90;;;25.90;99.90;;;;;;4893977;29;20579;-85
2022/06/08 10:45:36;;;;;;;10.30;7.10;;;26.70;99.90;;;;;;4861580;29;20557;-82
2022/06/08 10:48:49;;;;;;;16.23;6.85;;;27.20;99.90;;;;;;4860333;29;20510;-85
2022/06/08 10:51:58;;;;;;;9.60;7.00;;;27.20;99.90;;;;;;4877547;29;20565;-85
2022/06/08 10:55:05;;;;;;;9.10;6.95;;;26.60;99.90;;;;;;4877396;29;20112;-85
2022/06/08 10:57:52;;;;;;;9.63;6.82;;;26.90;99.90;;;;;;4888013;29;20535;-85
2022/06/08 11:01:22;;;;;;;8.40;6.53;;;27.10;99.90;;;;;;4885319;29;20059;-83
2022/06/08 11:04:30;;;;;;;11.63;6.72;;;26.70;99.90;;;;;;4895721;29;20063;-84
2022/06/08 11:07:22;;;;;;;12.55;7.93;;;26.70;99.90;;;;;;4895664;29;20084;-85
2022/06/08 11:10:53;;;;;;;14.27;8.48;;;26.40;99.90;;;;;;4883529;29;20059;-85
2022/06/08 11:14:26;;;;;;;10.57;6.95;;;26.30;99.90;;;;;;4896067;29;20408;-86
2022/06/08 11:21:57;;;;;;;11.00;7.05;;;26.30;99.90;;;;;;4889786;29;20537;-89
2022/06/08 11:24:48;;;;;;;9.50;6.70;;;26.40;99.90;;;;;;4860034;29;20056;-86
2022/06/08 11:27:39;;;;;;;11.25;7.15;;;26.60;99.90;;;;;;4860158;29;20077;-87
2022/06/08 11:30:24;;;;;;;8.85;6.85;;;26.70;99.90;;;;;;4859227;29;20061;-87
2022/06/08 11:33:14;;;;;;;9.27;6.65;;;26.80;99.90;;;;;;4869163;29;20144;-88
2022/06/08 11:36:34;;;;;;;9.18;7.30;;;26.70;99.90;;;;;;4879231;29;20125;-86
2022/06/08 11:39:46;;;;;;;9.35;6.53;;;26.90;99.90;;;;;;4872796;29;20060;-89
2022/06/08 11:42:58;;;;;;;10.27;7.63;;;27.00;99.90;;;;;;4866320;29;20055;-91
2022/06/08 11:45:52;;;;;;;11.27;7.32;;;27.20;99.90;;;;;;4881686;29;20101;-91
2022/06/08 11:48:49;;;;;;;11.75;7.63;;;27.20;99.90;;;;;;4881160;29;20045;-84
2022/06/08 11:51:39;;;;;;;12.00;7.63;;;27.30;99.90;;;;;;4879963;29;20140;-86
2022/06/08 11:54:29;;;;;;;10.93;7.15;;;27.50;99.90;;;;;;4878782;29;20056;-87
2022/06/08 11:57:19;;;;;;;10.88;6.97;;;27.80;99.90;;;;;;4878282;29;20044;-83
2022/06/08 12:00:21;;;;;;;9.43;7.65;;;27.90;99.90;;;;;;4878800;29;20055;-85
2022/06/08 12:03:16;;;;;;;11.27;7.43;;;27.80;99.90;;;;;;4877667;29;20072;-87
2022/06/08 12:06:18;;;;;;;11.45;7.93;;;27.30;99.90;;;;;;4878511;29;20064;-84
2022/06/08 12:09:21;;;;;;;9.73;7.35;;;27.50;99.90;;;;;;4877372;29;20075;-83
2022/06/08 12:12:18;;;;;;;10.00;7.35;;;27.30;99.90;;;;;;4878218;29;20056;-84
2022/06/08 12:15:43;;;;;;;11.30;7.70;;;27.30;99.90;;;;;;4881604;29;20076;-94
2022/06/08 12:19:01;;;;;;;11.63;8.50;;;27.30;99.90;;;;;;4884843;29;20067;-89
2022/06/08 12:22:40;;;;;;;10.90;7.47;;;27.50;99.90;;;;;;4871123;29;20532;-91
2022/06/08 12:25:56;;;;;;;9.98;7.68;;;27.10;99.90;;;;;;4881956;29;20052;-90
2022/06/08 12:29:00;;;;;;;10.57;7.25;;;27.10;99.90;;;;;;4871729;29;20084;-92
2022/06/08 12:32:21;;;;;;;11.13;7.95;;;26.90;99.90;;;;;;4891303;29;20048;-84
2022/06/08 12:35:41;;;;;;;12.40;8.32;;;26.60;99.90;;;;;;4890819;29;20051;-88
2022/06/08 12:39:18;;;;;;;10.20;7.88;;;26.20;99.90;;;;;;4890988;29;20123;-96
2022/06/08 12:42:28;;;;;;;11.15;8.07;;;26.10;99.90;;;;;;4896562;29;20060;-84
2022/06/08 12:46:04;;;;;;;11.38;8.30;;;26.00;99.90;;;;;;4893225;29;20060;-84
2022/06/08 12:48:54;;;;;;;10.93;8.73;;;25.90;99.90;;;;;;4878823;29;20060;-84
2022/06/08 12:52:13;;;;;;;11.82;8.82;;;25.80;99.90;;;;;;4889177;29;20504;-82
2022/06/08 12:55:26;;;;;;;11.25;8.00;;;25.90;99.90;;;;;;4890032;29;20132;-87
2022/06/08 12:59:05;;;;;;;10.00;7.57;;;25.80;99.90;;;;;;4861746;29;20063;-87
2022/06/08 13:01:57;;;;;;;10.00;7.82;;;25.70;99.90;;;;;;4895199;29;20405;-90
2022/06/08 13:05:40;;;;;;;11.52;7.60;;;25.60;99.90;;;;;;4892267;29;20060;-90
2022/06/08 13:08:43;;;;;;;11.93;8.30;;;25.50;99.90;;;;;;4864022;29;20082;-94
2022/06/08 13:11:35;;;;;;;14.90;9.23;;;25.40;99.90;;;;;;4866625;29;20056;-89
2022/06/08 13:14:23;;;;;;;10.40;8.50;;;25.40;99.90;;;;;;4886888;29;20519;-87
2022/06/08 13:17:12;;;;;;;15.50;9.93;;;25.40;99.90;;;;;;4896378;23;20063;-90
2022/06/08 13:19:58;;;;;;;12.82;8.88;;;25.40;99.90;;;;;;4905847;29;20100;-86
2022/06/08 13:22:45;;;;;;;17.58;10.35;;;25.40;99.90;;;;;;4907674;29;20457;-87
2022/06/08 13:26:02;;;;;;;17.67;9.90;;;25.40;99.90;;;;;;4901650;29;20182;-86
2022/06/08 13:28:52;;;;;;;14.10;9.27;;;25.50;99.90;;;;;;4901786;29;20055;-90
2022/06/08 13:31:45;;;;;;;11.55;9.55;;;25.60;99.90;;;;;;4902436;29;20391;-89
2022/06/08 13:34:39;;;;;;;16.08;11.95;;;25.50;99.90;;;;;;4902055;29;20137;-84
2022/06/08 13:37:59;;;;;;;14.93;10.60;;;25.60;99.90;;;;;;4854945;29;20060;-85
2022/06/08 13:40:47;;;;;;;10.50;8.40;;;25.80;99.90;;;;;;4900674;29;20128;-86
2022/06/08 13:43:40;;;;;;;13.45;7.45;;;25.70;99.90;;;;;;4899676;29;20044;-85
2022/06/08 13:46:44;;;;;;;9.32;6.68;;;25.70;99.90;;;;;;4901529;29;20506;-87
2022/06/08 13:49:34;;;;;;;8.90;7.22;;;25.60;99.90;;;;;;4902531;29;20131;-93
2022/06/08 13:52:24;;;;;;;8.98;7.05;;;25.60;99.90;;;;;;4900147;29;20039;-83
2022/06/08 13:55:14;;;;;;;;;;;25.50;99.90;;;;;;4900377;29;20419;-83
2022/06/08 13:58:03;;;;;;;7.50;5.77;;;25.60;99.90;;;;;;4899669;29;20026;-83
2022/06/08 14:00:56;;;;;;;9.85;6.63;;;25.60;99.90;;;;;;4899595;29;20177;-84
2022/06/08 14:03:42;;;;;;;7.60;6.65;;;25.50;99.90;;;;;;4900294;29;20136;-85
2022/06/08 14:13:00;;;;;;;9.40;5.78;;;25.60;99.90;;;;;;4900240;29;20132;-87
2022/06/08 14:15:51;;;;;;;35.22;11.80;;;25.50;99.90;;;;;;4900222;29;20176;-88
2022/06/08 14:18:44;;;;;;;11.93;7.65;;;25.50;99.90;;;;;;4898764;29;20055;-85
2022/06/08 14:21:33;;;;;;;11.07;6.35;;;25.50;99.90;;;;;;4899475;29;20548;-85
2022/06/08 14:25:05;;;;;;;7.80;5.70;;;25.50;99.90;;;;;;4898836;29;20314;-86
2022/06/08 14:28:45;;;;;;;;;;;;;;;;;;;;;
2022/06/08 14:35:57;;;;;;;9.95;5.90;;;25.50;99.90;;;;;;4842788;29;20052;-90
2022/06/08 14:39:10;;;;;;;7.85;5.15;;;25.50;99.90;;;;;;4831855;29;20077;-90
2022/06/08 14:42:20;;;;;;;10.20;5.97;;;25.60;99.90;;;;;;4842095;29;20107;-84
2022/06/08 14:45:07;;;;;;;8.13;5.47;;;25.50;99.90;;;;;;5012758;23;20055;-85
2022/06/08 14:48:03;;;;;;;11.60;7.00;;;25.70;99.90;;;;;;4878533;29;20048;-87
2022/06/08 14:54:18;;;;;;;8.95;6.30;;;25.90;99.90;;;;;;4935622;23;20061;-89
2022/06/08 14:57:28;;;;;;;8.63;5.38;;;26.00;99.90;;;;;;4930068;29;20139;-88
2022/06/08 15:00:16;;;;;;;11.65;6.80;;;26.20;99.90;;;;;;4930536;29;20127;-87
2022/06/08 15:05:52;;;;;;;10.90;5.20;;;26.40;99.90;;;;;;4969177;23;20616;-89
2022/06/08 15:15:35;;;;;;;6.93;4.68;;;25.90;99.90;;;;;;4861574;29;20129;-87
2022/06/08 15:18:37;;;;;;;7.78;5.18;;;25.60;99.90;;;;;;4861885;29;20049;-88
2022/06/08 15:21:37;;;;;;;8.98;4.00;;;25.70;99.90;;;;;;4859918;29;20082;-87
2022/06/08 15:24:25;;;;;;;10.93;3.20;;;25.60;99.90;;;;;;4862528;29;20052;-84
2022/06/08 15:27:23;;;;;;;9.05;3.08;;;25.60;99.90;;;;;;4865769;29;20476;-87
2022/06/08 15:30:14;;;;;;;16.55;4.25;;;25.40;99.90;;;;;;4868838;29;20057;-85
2022/06/08 15:33:01;;;;;;;5.57;3.03;;;25.10;99.90;;;;;;4865052;29;20053;-82
2022/06/08 15:35:58;;;;;;;9.23;3.00;;;25.10;99.90;;;;;;4861907;29;20064;-87
2022/06/08 15:38:51;;;;;;;7.82;3.28;;;25.00;99.90;;;;;;4861922;29;20437;-87
2022/06/08 15:41:37;;;;;;;10.02;3.95;;;24.50;99.90;;;;;;4860425;29;20064;-86
2022/06/08 15:44:25;;;;;;;7.25;3.63;;;24.60;99.90;;;;;;4860784;29;20151;-82
2022/06/08 15:47:15;;;;;;;12.55;3.85;;;24.70;99.90;;;;;;4860775;29;20056;-82
2022/06/08 15:50:07;;;;;;;11.20;2.72;;;24.70;99.90;;;;;;4859712;29;20067;-85
2022/06/08 15:52:57;;;;;;;7.60;2.92;;;24.30;99.90;;;;;;4850456;29;20057;-79
2022/06/08 15:55:43;;;;;;;10.10;3.15;;;24.20;99.90;;;;;;4841552;29;20072;-80
2022/06/08 15:58:29;;;;;;;27.45;17.60;;;24.10;99.90;;;;;;4841807;29;20056;-77
2022/06/08 16:01:16;;;;;;;16.92;7.38;;;23.90;99.90;;;;;;4841449;29;20506;-80
2022/06/08 16:04:02;;;;;;;6.85;3.03;;;24.00;99.90;;;;;;4841513;29;20160;-78
2022/06/08 16:06:49;;;;;;;15.73;5.75;;;24.10;99.90;;;;;;4845609;29;20426;-76
2022/06/08 16:09:36;;;;;;;20.85;14.55;;;24.10;99.90;;;;;;4850036;29;20057;-77
2022/06/08 16:12:21;;;;;;;9.23;4.75;;;23.90;99.90;;;;;;4843791;29;20053;-78
2022/06/08 16:15:12;;;;;;;19.23;13.68;;;24.00;99.90;;;;;;4833969;29;20053;-78
2022/06/08 16:17:58;;;;;;;41.58;24.25;;;24.10;99.90;;;;;;4839576;29;20713;-77
2022/06/08 16:20:45;;;;;;;22.55;16.63;;;24.10;99.70;;;;;;4839569;29;20105;-80
2022/06/08 16:23:31;;;;;;;13.27;4.88;;;24.50;99.20;;;;;;4838929;29;20057;-80